Flight Track Log - Related Links

Times and Time Zones

All times are in EDT time to prevent confusion due to time zone crossing. See the EJA831 flight status page for this flight to view local times or setup timezone preferences in your user account.

Time Position Orientation Groundspeed Altitude Reporting Facility
EDT Latitude Longitude Course Direction KTS MPH feet Rate Location/Type
Tue 11:40:41 PM 41.5125 -81.6978 333° Northwest 158 182 1,100  Level Cleveland Center
Tue 11:41:48 PM 41.5539 -81.7264 333° Northwest 248 285 3,100 2,016 Climbing Cleveland Center
Tue 11:42:46 PM 41.5983 -81.6800 38° Northeast 251 289 5,300 2,847 Climbing Cleveland Center
Tue 11:43:46 PM 41.6572 -81.6169 39° Northeast 284 327 8,700 3,000 Climbing Cleveland Center
Tue 11:44:46 PM 41.7161 -81.5511 40° Northeast 297 342 11,300 2,200 Climbing Cleveland Center
Tue 11:46:46 PM 41.8489 -81.3747 45° Northeast 312 359 15,300 2,167 Climbing Cleveland Center
Tue 11:47:46 PM 41.8642 -81.2578 80° East 312 359 17,800 2,250 Climbing Cleveland Center
Tue 11:48:46 PM 41.8836 -81.1353 78° East 320 368 19,800 2,000 Climbing Cleveland Center
Tue 11:49:46 PM 41.9028 -81.0128 78° East 333 383 21,800 2,000 Climbing Cleveland Center
Tue 11:50:46 PM 41.9242 -80.8875 77° East 340 391 23,800 1,900 Climbing Cleveland Center
Tue 11:51:46 PM 41.9389 -80.7561 81° East 345 397 25,600 1,850 Climbing Cleveland Center
Tue 11:52:46 PM 41.9475 -80.6278 85° East 350 403 27,500 1,850 Climbing Cleveland Center
Tue 11:53:46 PM 41.9558 -80.4939 85° East 350 403 29,300 1,600 Climbing Cleveland Center
Tue 11:54:46 PM 41.9661 -80.3736 83° East 350 403 30,700 1,450 Climbing Cleveland Center
Tue 11:55:46 PM 41.9742 -80.2397 85° East 350 403 32,200 1,550 Climbing Cleveland Center
Tue 11:56:46 PM 41.9819 -80.1028 86° East 355 409 33,800 1,450 Climbing Cleveland Center
Tue 11:57:46 PM 41.9917 -79.9517 85° East 366 421 35,100 1,300 Climbing Cleveland Center
Tue 11:58:46 PM 42.0011 -79.8147 85° East 366 421 36,400 950 Climbing Cleveland Center
Tue 11:59:46 PM 42.0106 -79.6694 85° East 372 428 37,000 300 Climbing Cleveland Center
Wed 12:00:46 AM 42.0156 -79.5294 87° East 395 455 37,000  Level Cleveland Center
Wed 12:01:46 AM 42.0267 -79.3700 85° East 412 474 37,000  Level Cleveland Center
Wed 12:02:46 AM 42.0353 -79.2106 86° East 425 489 37,000  Level Cleveland Center
Wed 12:03:46 AM 42.0417 -79.0567 87° East 420 483 37,000  Level Cleveland Center
Wed 12:04:46 AM 42.0519 -78.8997 85° East 420 483 37,000  Level Cleveland Center
Wed 12:05:46 AM 42.0578 -78.7431 87° East 420 483 37,000  Level Cleveland Center
Wed 12:06:46 AM 42.0658 -78.5917 86° East 420 483 37,000  Level Cleveland Center
Wed 12:07:46 AM 42.0714 -78.4350 87° East 415 478 37,000  Level Cleveland Center
Wed 12:09:53 AM 42.0853 -78.0925 87° East 422 486 37,000  Level New York Center
Wed 12:10:56 AM 42.0925 -77.9367 86° East 422 486 37,000  Level New York Center
Wed 12:11:55 AM 42.0975 -77.7861 87° East 417 480 37,000  Level New York Center
Wed 12:12:55 AM 42.1044 -77.6303 87° East 417 480 37,000  Level New York Center
Wed 12:13:55 AM 42.1089 -77.4769 88° East 417 480 37,000  Level New York Center
Wed 12:14:56 AM 42.1147 -77.3350 87° East 422 486 37,000  Level New York Center
Wed 12:15:55 AM 42.1211 -77.1819 87° East 417 480 37,000 -205 Level New York Center
Wed 12:16:53 AM 42.1253 -77.0228 88° East 417 480 36,600 -1,008 Descending New York Center
Wed 12:17:54 AM 42.0975 -76.8750 104° East 417 480 35,000 -1,525 Descending New York Center
Wed 12:18:55 AM 42.0528 -76.7311 113° Southeast 412 474 33,500 -1,488 Descending New York Center
Wed 12:19:55 AM 42.0097 -76.5906 112° Southeast 407 468 32,000 -1,525 Descending New York Center
Wed 12:20:53 AM 41.9628 -76.4414 113° Southeast 413 475 30,500 -1,475 Descending New York Center
Wed 12:21:53 AM 41.9178 -76.2953 112° Southeast 418 481 29,100 -1,587 Descending New York Center
Wed 12:22:54 AM 41.8725 -76.1467 112° Southeast 428 493 27,300 -1,672 Descending New York Center
Wed 12:23:55 AM 41.8247 -76.0008 114° Southeast 428 493 25,700 -1,563 Descending New York Center
Wed 12:24:53 AM 41.7769 -75.8553 114° Southeast 428 493 24,200 -1,500 Descending New York Center
Wed 12:25:55 AM 41.7311 -75.7128 113° Southeast 428 493 22,700 -1,488 Descending New York Center
Wed 12:26:54 AM 41.6889 -75.5736 112° Southeast 421 484 21,200 -1,500 Descending New York Center
Wed 12:27:55 AM 41.6442 -75.4372 114° Southeast 406 467 19,700 -1,537 Descending New York Center
Wed 12:28:55 AM 41.6036 -75.3039 112° Southeast 395 455 18,100 -1,400 Descending New York Center
Wed 12:29:55 AM 41.5606 -75.1761 114° Southeast 384 442 16,900 -1,475 Descending New York Center
Wed 12:30:53 AM 41.5175 -75.0433 113° Southeast 379 436 15,200 -1,613 Descending New York Center
Wed 12:31:54 AM 41.4742 -74.9186 115° Southeast 363 418 13,700 -1,450 Descending New York Center
Wed 12:32:53 AM 41.4383 -74.8086 113° Southeast 363 418 12,300 -857 Descending New York Center
Wed 12:33:53 AM 41.3947 -74.6786 114° Southeast 356 410 12,000 -146 Descending New York Center
Wed 12:34:56 AM 41.3589 -74.5689 113° Southeast 351 404 12,000 -397 Level New York Center
Wed 12:35:54 AM 41.3150 -74.4392 114° Southeast 346 398 11,200 -857 Descending New York Center
Wed 12:36:55 AM 41.2844 -74.3464 114° Southeast 329 379 10,300 -1,000 Descending New York Center
Wed 12:37:54 AM 41.2481 -74.2397 114° Southeast 300 345 9,200 -1,100 Descending New York Center
Wed 12:38:55 AM 41.2156 -74.1444 114° Southeast 283 326 8,100 -1,008 Descending New York Center
Wed 12:39:53 AM 41.1828 -74.0489 114° Southeast 283 326 7,200 -1,000 Descending New York Center
Wed 12:40:55 AM 41.1519 -73.9564 114° Southeast 277 319 6,100 -1,000 Descending New York Center
Wed 12:41:53 AM 41.1103 -73.8803 126° Southeast 264 304 5,200 -966 Descending New York Center
Wed 12:42:53 AM 41.0597 -73.8256 141° Southeast 246 283 4,200 -1,043 Descending New York Center
Wed 12:43:25 AM 41.0333 -73.8000 144° Southeast 214 246 3,600 -1,286 Descending New York TRACON
Wed 12:44:31 AM 41.0167 -73.7333 108° East 164 189 2,100 -1,100 Descending New York TRACON
Wed 12:45:25 AM 41.0167 -73.7000 90° East 124 143 1,400 -789 Descending New York TRACON
Wed 12:46:25 AM 41.0500 -73.7000 360° North 106 122 600 -800 Descending New York TRACON
Wed 12:48:00 AM 41.0667 -73.7000 294° West  Level FlightAware Approximate
Wed 12:55:00 AM 41.0669 -73.7076 294° West  Level Estimated

Login

Don't have an account? Register now (free) for customized features, flight alerts, and more!